Dorchester, New Hampshire
Current Conditions -  °F | °C
As of 9:55 AM on Friday 28 Nov 2014 (Local Time) from K1P1 Reporting Station
Broken Clouds Broken Clouds  
Wind Chill: 20°   Ceiling: 11000
Heat Index: 27°   Visibility: 10mi
Dew Point: 23°   Wind: 7mph
Humidity: 84%   Direction: 280°W
Pressure: 30.05"   Gusts: NA
Location:  43.7922°N, 71.8971°W
Report Text: K1P1 281455Z AUTO 28006KT 10SM BKN110 M03/M05 A3005 RMK AO2 T10261050
Loading
Personal Weather Stations






























Interactive Weather Map New forecast layout! Learn more

10-Day Weather Forecast

Advertisements
Track Severe Weather on mobile